createdAt,value
2019-03-09T00:01:01.318Z,3.30
2019-03-09T00:03:27.861Z,3.70
2019-03-09T00:05:54.164Z,3.73
2019-03-09T00:08:20.944Z,5.00
2019-03-09T00:10:47.475Z,4.80
2019-03-09T00:13:14.149Z,4.00
2019-03-09T00:15:40.595Z,4.07
2019-03-09T00:18:06.695Z,4.33
2019-03-09T00:20:32.993Z,4.30
2019-03-09T00:23:06.834Z,3.73
2019-03-09T00:25:38.148Z,3.93
2019-03-09T00:28:08.075Z,5.20
2019-03-09T00:30:36.064Z,5.07
2019-03-09T00:33:02.297Z,5.10
2019-03-09T00:35:28.816Z,3.83
2019-03-09T00:37:55.029Z,3.93
2019-03-09T00:40:21.157Z,3.40
2019-03-09T00:42:47.236Z,4.40
2019-03-09T00:45:13.569Z,4.20
2019-03-09T00:47:39.741Z,3.83
2019-03-09T00:50:08.419Z,3.80
2019-03-09T00:52:34.630Z,4.10
2019-03-09T00:55:01.025Z,4.10
2019-03-09T00:57:27.138Z,4.70
2019-03-09T00:59:55.387Z,3.50
2019-03-09T01:02:21.690Z,3.80
2019-03-09T01:04:48.341Z,5.53
2019-03-09T01:07:14.585Z,4.00
2019-03-09T01:09:41.673Z,5.30
2019-03-09T01:12:07.795Z,4.50
2019-03-09T01:14:34.097Z,3.20
2019-03-09T01:17:00.279Z,4.23
2019-03-09T01:19:26.494Z,4.33
2019-03-09T01:21:52.795Z,4.27
2019-03-09T01:24:19.037Z,3.53
2019-03-09T01:26:45.204Z,4.07
2019-03-09T01:29:11.254Z,4.87
2019-03-09T01:31:37.352Z,4.70
2019-03-09T01:34:03.764Z,4.57
2019-03-09T01:36:33.861Z,4.63
2019-03-09T01:39:00.143Z,5.50
2019-03-09T01:41:28.684Z,5.30
2019-03-09T01:43:55.353Z,5.03
2019-03-09T01:46:21.544Z,6.30
2019-03-09T01:48:47.976Z,5.30
2019-03-09T01:51:14.186Z,8.13
2019-03-09T01:53:54.264Z,6.00
2019-03-09T01:56:20.420Z,6.10
2019-03-09T01:58:46.584Z,6.63
2019-03-09T02:01:13.147Z,4.80
2019-03-09T02:03:39.373Z,6.43
2019-03-09T02:06:05.469Z,6.60
2019-03-09T02:08:31.639Z,7.50
2019-03-09T02:10:57.902Z,7.53
2019-03-09T02:13:24.058Z,8.33
2019-03-09T02:15:51.210Z,7.80
2019-03-09T02:18:17.306Z,8.80
2019-03-09T02:20:43.430Z,8.50
2019-03-09T02:23:09.688Z,10.73
2019-03-09T02:25:36.075Z,8.83
2019-03-09T02:28:02.499Z,8.50
2019-03-09T02:30:32.348Z,9.90
2019-03-09T02:32:58.393Z,10.80
2019-03-09T02:35:24.530Z,10.17
2019-03-09T02:37:52.775Z,10.60
2019-03-09T02:40:23.780Z,11.37
2019-03-09T02:42:52.034Z,10.80
2019-03-09T02:45:22.583Z,11.50
2019-03-09T02:47:49.176Z,12.17
2019-03-09T02:50:15.853Z,11.17
2019-03-09T02:52:43.661Z,11.90
2019-03-09T02:55:11.421Z,11.73
2019-03-09T02:57:37.671Z,12.40
2019-03-09T03:00:10.180Z,11.90
2019-03-09T03:02:38.246Z,12.47
2019-03-09T03:05:05.297Z,12.90
2019-03-09T03:07:31.812Z,12.97
2019-03-09T03:09:58.353Z,15.33
2019-03-09T03:12:25.391Z,14.37
2019-03-09T03:14:56.412Z,12.43
2019-03-09T03:17:22.766Z,14.10
2019-03-09T03:19:48.920Z,14.37
2019-03-09T03:22:15.119Z,13.23
2019-03-09T03:24:41.291Z,14.23
2019-03-09T03:27:07.418Z,12.47
2019-03-09T03:29:33.599Z,13.07
2019-03-09T03:32:00.073Z,13.33
2019-03-09T03:34:26.715Z,12.30
2019-03-09T03:36:53.621Z,11.27
2019-03-09T03:39:19.977Z,13.47
2019-03-09T03:41:46.364Z,11.10
2019-03-09T03:44:12.623Z,10.40
2019-03-09T03:46:38.777Z,10.63
2019-03-09T03:49:04.855Z,11.00
2019-03-09T03:51:31.014Z,12.07
2019-03-09T03:53:57.095Z,10.10
2019-03-09T03:56:23.552Z,10.30
2019-03-09T03:58:49.721Z,11.27
2019-03-09T04:01:15.800Z,11.10
2019-03-09T04:03:42.041Z,11.50
2019-03-09T04:06:08.672Z,9.63
2019-03-09T04:08:34.901Z,9.57
2019-03-09T04:11:01.358Z,12.00
2019-03-09T04:13:27.492Z,10.87
2019-03-09T04:15:53.888Z,10.50
2019-03-09T04:18:20.057Z,11.27
2019-03-09T04:20:46.314Z,10.63
2019-03-09T04:23:12.368Z,11.30
2019-03-09T04:25:38.472Z,10.83
2019-03-09T04:28:04.708Z,10.30
2019-03-09T04:30:30.715Z,11.33
2019-03-09T04:32:56.878Z,11.20
2019-03-09T04:35:23.006Z,11.47
2019-03-09T04:37:49.137Z,13.10
2019-03-09T04:40:15.282Z,11.30
2019-03-09T04:42:41.336Z,12.47
2019-03-09T04:45:09.187Z,12.13
2019-03-09T04:47:35.341Z,13.37
2019-03-09T04:50:02.239Z,13.57
2019-03-09T04:52:28.245Z,11.90
2019-03-09T04:54:54.315Z,12.97
2019-03-09T04:57:20.326Z,13.33
2019-03-09T04:59:46.775Z,13.53
2019-03-09T05:02:12.976Z,12.33
2019-03-09T05:04:41.566Z,13.93
2019-03-09T05:07:09.588Z,13.63
2019-03-09T05:09:53.477Z,13.73
2019-03-09T05:12:20.662Z,13.90
2019-03-09T05:14:46.757Z,13.27
2019-03-09T05:17:13.635Z,15.00
2019-03-09T05:19:41.739Z,14.30
2019-03-09T05:22:07.901Z,13.00
2019-03-09T05:24:33.995Z,14.80
2019-03-09T05:27:00.285Z,12.67
2019-03-09T05:29:28.741Z,13.70
2019-03-09T05:31:56.267Z,13.30
2019-03-09T05:34:22.514Z,13.20
2019-03-09T05:36:50.609Z,12.70
2019-03-09T05:39:16.869Z,12.73
2019-03-09T05:41:44.844Z,12.80
2019-03-09T05:44:13.297Z,12.40
2019-03-09T05:46:39.696Z,12.30
2019-03-09T05:49:06.156Z,12.20
2019-03-09T05:51:35.076Z,11.90
2019-03-09T05:54:01.441Z,12.60
2019-03-09T05:56:30.409Z,13.17
2019-03-09T05:58:56.623Z,12.97
2019-03-09T06:01:24.834Z,13.83
2019-03-09T06:03:53.990Z,13.53
2019-03-09T06:06:20.196Z,15.53
2019-03-09T06:08:46.549Z,13.33
2019-03-09T06:11:12.743Z,13.30
2019-03-09T06:13:40.458Z,14.23
2019-03-09T06:16:06.666Z,15.30
2019-03-09T06:18:34.659Z,14.30
2019-03-09T06:21:02.362Z,13.80
2019-03-09T06:23:30.960Z,14.50
2019-03-09T06:25:57.732Z,14.17
2019-03-09T06:28:25.734Z,13.87
2019-03-09T06:30:52.727Z,14.30
2019-03-09T06:33:26.801Z,12.60
2019-03-09T06:36:11.564Z,12.77
2019-03-09T06:38:44.076Z,12.07
2019-03-09T06:41:19.827Z,11.57
2019-03-09T06:43:46.023Z,11.20
2019-03-09T06:46:12.304Z,10.70
2019-03-09T06:48:38.551Z,9.70
2019-03-09T06:51:05.829Z,10.40
2019-03-09T06:53:32.276Z,9.10
2019-03-09T06:55:58.726Z,9.80
2019-03-09T06:58:25.010Z,9.00
2019-03-09T07:00:54.791Z,7.60
2019-03-09T07:03:24.900Z,9.37
2019-03-09T07:05:51.148Z,8.03
2019-03-09T07:08:17.447Z,8.60
2019-03-09T07:10:43.695Z,7.77
2019-03-09T07:13:12.840Z,7.60
2019-03-09T07:15:40.941Z,7.80
2019-03-09T07:18:15.679Z,8.00
2019-03-09T07:20:41.892Z,6.90
2019-03-09T07:23:08.579Z,7.27
2019-03-09T07:25:34.987Z,6.57
2019-03-09T07:28:04.038Z,8.20
2019-03-09T07:33:35.642Z,5.27
2019-03-09T07:36:01.906Z,6.00
2019-03-09T07:38:28.379Z,5.10
2019-03-09T07:40:54.430Z,5.77
2019-03-09T07:43:20.585Z,4.77
2019-03-09T07:45:47.309Z,6.00
2019-03-09T07:48:13.530Z,6.33
2019-03-09T07:50:39.935Z,3.83
2019-03-09T07:53:06.694Z,4.60
2019-03-09T07:55:33.106Z,4.20
2019-03-09T07:58:01.201Z,3.83
2019-03-09T08:00:30.171Z,4.20
2019-03-09T08:02:57.768Z,4.67
2019-03-09T08:05:27.447Z,3.67
2019-03-09T08:07:53.876Z,5.20
2019-03-09T08:10:24.246Z,3.60
2019-03-09T08:12:51.104Z,3.77
2019-03-09T08:15:19.951Z,4.00
2019-03-09T08:17:46.422Z,4.80
2019-03-09T08:20:14.353Z,3.83
2019-03-09T08:22:42.668Z,4.57
2019-03-09T08:25:11.527Z,4.83
2019-03-09T08:27:37.636Z,6.57
2019-03-09T08:30:07.567Z,4.10
2019-03-09T08:32:34.006Z,4.70
2019-03-09T08:35:00.360Z,4.10
2019-03-09T08:37:26.550Z,5.90
2019-03-09T08:39:52.573Z,3.93
2019-03-09T08:42:18.675Z,4.30
2019-03-09T08:44:45.210Z,3.93
2019-03-09T08:47:11.392Z,4.53
2019-03-09T08:49:37.509Z,4.30
2019-03-09T08:52:04.383Z,4.97
2019-03-09T08:54:30.654Z,4.00
2019-03-09T08:56:56.911Z,3.50
2019-03-09T08:59:23.126Z,3.83
2019-03-09T09:01:49.381Z,4.60
2019-03-09T09:04:15.704Z,6.30
2019-03-09T09:06:44.466Z,6.63
2019-03-09T09:09:10.803Z,4.47
2019-03-09T09:11:37.253Z,5.40
2019-03-09T09:14:04.826Z,5.57
2019-03-09T09:16:33.539Z,7.80
2019-03-09T09:19:00.727Z,5.10
2019-03-09T09:21:27.776Z,6.77
2019-03-09T09:23:53.946Z,7.53
2019-03-09T09:26:20.141Z,5.03
2019-03-09T09:28:46.331Z,5.67
2019-03-09T09:31:12.387Z,5.03
2019-03-09T09:33:38.523Z,6.07
2019-03-09T09:36:04.555Z,6.13
2019-03-09T09:38:30.582Z,5.33
2019-03-09T09:40:56.691Z,5.03
2019-03-09T09:43:23.424Z,5.50
2019-03-09T09:45:49.449Z,5.73
2019-03-09T09:48:15.631Z,10.13
2019-03-09T09:50:41.791Z,6.93
2019-03-09T09:53:08.045Z,5.83
2019-03-09T09:55:34.065Z,4.80
2019-03-09T09:58:00.094Z,7.33
2019-03-09T10:00:27.195Z,6.33
2019-03-09T10:02:53.377Z,4.77
2019-03-09T10:05:20.265Z,4.57
2019-03-09T10:07:46.839Z,4.37
2019-03-09T10:10:15.015Z,4.70
2019-03-09T10:12:41.309Z,3.10
2019-03-09T10:15:18.430Z,3.47
2019-03-09T10:17:45.054Z,3.43
2019-03-09T10:20:12.025Z,2.50
2019-03-09T10:22:38.175Z,3.17
2019-03-09T10:25:06.626Z,2.97
2019-03-09T10:27:33.823Z,2.70
2019-03-09T10:30:00.010Z,3.17
2019-03-09T10:32:26.428Z,2.17
2019-03-09T10:34:52.478Z,3.30
2019-03-09T10:37:18.650Z,3.80
2019-03-09T10:39:44.717Z,4.20
2019-03-09T10:42:10.839Z,3.47
2019-03-09T10:44:37.079Z,4.13
2019-03-09T10:47:03.203Z,3.63
2019-03-09T10:49:29.282Z,4.17
2019-03-09T10:51:55.335Z,5.23
2019-03-09T10:54:21.410Z,3.23
2019-03-09T10:56:47.697Z,4.57
2019-03-09T10:59:14.095Z,3.37
2019-03-09T11:01:40.321Z,3.90
2019-03-09T11:04:06.937Z,3.33
2019-03-09T11:06:35.381Z,4.00
2019-03-09T11:09:01.703Z,3.00
2019-03-09T11:11:27.939Z,3.80
2019-03-09T11:13:54.073Z,3.93
2019-03-09T11:16:20.258Z,4.63
2019-03-09T11:18:46.344Z,4.20
2019-03-09T11:21:12.824Z,4.70
2019-03-09T11:23:39.161Z,4.50
2019-03-09T11:26:05.639Z,4.33
2019-03-09T11:28:31.806Z,3.27
2019-03-09T11:30:57.966Z,2.60
2019-03-09T11:33:24.399Z,4.83
2019-03-09T11:35:52.540Z,3.80
2019-03-09T11:38:18.673Z,3.63
2019-03-09T11:40:56.581Z,3.57
2019-03-09T11:43:13.312Z,3.37
2019-03-09T11:45:39.755Z,3.10
2019-03-09T11:48:05.976Z,4.27
2019-03-09T11:50:32.264Z,4.03
2019-03-09T11:52:58.532Z,3.70
2019-03-09T11:55:37.466Z,2.90
2019-03-09T11:58:03.928Z,3.50
2019-03-09T12:00:32.031Z,3.00
2019-03-09T12:02:58.222Z,4.67
2019-03-09T12:05:24.823Z,3.33
2019-03-09T12:07:51.136Z,3.90
2019-03-09T12:10:17.490Z,3.30
2019-03-09T12:12:45.072Z,4.23
2019-03-09T12:15:16.856Z,3.23
2019-03-09T12:17:43.082Z,3.00
2019-03-09T12:20:12.361Z,2.97
2019-03-09T12:22:38.669Z,3.30
2019-03-09T12:25:08.968Z,3.93
2019-03-09T12:27:35.172Z,3.80
2019-03-09T12:30:03.755Z,3.33
2019-03-09T12:32:29.352Z,3.70
2019-03-09T12:34:55.491Z,4.23
2019-03-09T12:37:21.769Z,4.57
2019-03-09T12:39:47.865Z,4.20
2019-03-09T12:42:14.140Z,4.93
2019-03-09T12:44:40.284Z,4.60
2019-03-09T12:47:06.452Z,5.20
2019-03-09T12:49:32.567Z,3.60
2019-03-09T12:51:58.754Z,3.50
2019-03-09T12:54:24.785Z,4.63
2019-03-09T12:56:50.922Z,4.37
2019-03-09T12:59:17.088Z,4.20
2019-03-09T13:01:43.145Z,3.50
2019-03-09T13:04:09.807Z,3.67
2019-03-09T13:06:36.013Z,4.30
2019-03-09T13:09:04.009Z,3.73
2019-03-09T13:11:30.621Z,4.70
2019-03-09T13:13:56.850Z,3.70
2019-03-09T13:16:22.973Z,4.43
2019-03-09T13:18:49.215Z,4.50
2019-03-09T13:21:15.450Z,4.07
2019-03-09T13:23:41.559Z,4.37
2019-03-09T13:26:07.786Z,3.90
2019-03-09T13:28:33.920Z,3.70
2019-03-09T13:31:00.046Z,3.70
2019-03-09T13:33:26.222Z,4.73
2019-03-09T13:35:52.398Z,4.70
2019-03-09T13:38:18.524Z,3.50
2019-03-09T13:40:44.780Z,3.50
2019-03-09T13:43:11.148Z,4.03
2019-03-09T13:45:37.222Z,4.17
2019-03-09T13:48:03.436Z,3.90
2019-03-09T13:50:29.655Z,5.63
2019-03-09T13:52:58.571Z,6.10
2019-03-09T13:55:24.853Z,4.10
2019-03-09T13:57:51.327Z,5.00
2019-03-09T14:00:18.131Z,5.10
2019-03-09T14:02:44.186Z,5.03
2019-03-09T14:05:12.127Z,6.00
2019-03-09T14:07:38.439Z,5.33
2019-03-09T14:10:08.111Z,5.60
2019-03-09T14:12:34.441Z,5.47
2019-03-09T14:15:00.569Z,3.87
2019-03-09T14:17:26.772Z,4.80
2019-03-09T14:19:53.033Z,6.17
2019-03-09T14:22:19.269Z,5.33
2019-03-09T14:24:45.481Z,4.00
2019-03-09T14:27:11.623Z,5.30
2019-03-09T14:29:37.716Z,4.53
2019-03-09T14:32:03.872Z,5.00
2019-03-09T14:34:30.029Z,5.20
2019-03-09T14:36:56.111Z,5.00
2019-03-09T14:39:22.215Z,3.97
2019-03-09T14:41:48.848Z,5.03
2019-03-09T14:44:14.985Z,4.80
2019-03-09T14:46:41.031Z,5.53
2019-03-09T14:49:07.136Z,4.30
2019-03-09T14:51:34.685Z,4.10
2019-03-09T14:54:00.827Z,4.70
2019-03-09T14:56:27.057Z,3.20
2019-03-09T14:58:53.270Z,4.30
2019-03-09T15:01:19.538Z,4.97
2019-03-09T15:03:46.063Z,5.23
2019-03-09T15:06:12.486Z,5.20
2019-03-09T15:08:38.599Z,6.23
2019-03-09T15:11:05.134Z,6.00
2019-03-09T15:13:31.490Z,4.30
2019-03-09T15:15:57.627Z,3.90
2019-03-09T15:18:25.177Z,4.53
2019-03-09T15:20:51.551Z,4.87
2019-03-09T15:23:17.719Z,3.40
2019-03-09T15:25:43.971Z,4.00
2019-03-09T15:28:10.431Z,5.10
2019-03-09T15:30:36.882Z,3.70
2019-03-09T15:33:03.597Z,3.87
2019-03-09T15:35:30.106Z,3.03
2019-03-09T15:37:56.287Z,3.80
2019-03-09T15:40:22.659Z,3.23
2019-03-09T15:42:49.213Z,3.27
2019-03-09T15:45:16.769Z,3.60
2019-03-09T15:47:43.078Z,6.13
2019-03-09T15:50:11.768Z,4.03
2019-03-09T15:52:39.260Z,3.70
2019-03-09T15:55:06.804Z,4.70
2019-03-09T15:57:33.321Z,5.77
2019-03-09T15:59:59.683Z,4.33
2019-03-09T16:02:26.545Z,3.20
2019-03-09T16:04:55.188Z,3.53
2019-03-09T16:07:22.129Z,6.50
2019-03-09T16:09:48.687Z,4.23
2019-03-09T16:12:15.019Z,5.77
2019-03-09T16:14:41.488Z,4.33
2019-03-09T16:17:08.190Z,4.10
2019-03-09T16:19:34.284Z,4.47
2019-03-09T16:22:00.953Z,4.50
2019-03-09T16:24:29.207Z,4.83
2019-03-09T16:26:56.991Z,4.20
2019-03-09T16:29:25.087Z,4.33
2019-03-09T16:31:51.483Z,5.50
2019-03-09T16:34:17.727Z,4.67
2019-03-09T16:36:43.897Z,4.57
2019-03-09T16:39:10.155Z,4.47
2019-03-09T16:41:36.506Z,4.60
2019-03-09T16:44:02.996Z,5.10
2019-03-09T16:46:29.117Z,5.60
2019-03-09T16:48:55.241Z,4.87
2019-03-09T16:51:21.397Z,5.30
2019-03-09T16:53:47.524Z,4.73
2019-03-09T16:56:13.717Z,5.70
2019-03-09T16:58:39.886Z,5.07
2019-03-09T17:01:06.108Z,5.40
2019-03-09T17:03:32.545Z,5.17
2019-03-09T17:05:58.579Z,5.50
2019-03-09T17:08:24.689Z,6.73
2019-03-09T17:10:51.246Z,5.73
2019-03-09T17:13:17.426Z,5.70
2019-03-09T17:15:43.581Z,4.90
2019-03-09T17:18:11.060Z,6.07
2019-03-09T17:20:37.172Z,6.97
2019-03-09T17:23:03.366Z,7.80
2019-03-09T17:25:29.762Z,6.73
2019-03-09T17:27:56.263Z,5.63
2019-03-09T17:30:22.420Z,5.17
2019-03-09T17:32:48.517Z,5.90
2019-03-09T17:35:15.052Z,5.37
2019-03-09T17:37:41.656Z,4.70
2019-03-09T17:40:11.187Z,5.60
2019-03-09T17:42:37.341Z,4.93
2019-03-09T17:45:09.900Z,4.43
2019-03-09T17:47:36.256Z,4.97
2019-03-09T17:50:04.298Z,4.20
2019-03-09T17:52:30.667Z,4.53
2019-03-09T17:54:56.992Z,4.00
2019-03-09T17:57:23.301Z,3.33
2019-03-09T17:59:49.850Z,4.40
2019-03-09T18:02:16.574Z,4.87
2019-03-09T18:04:43.062Z,6.80
2019-03-09T18:07:09.282Z,4.83
2019-03-09T18:09:35.455Z,3.70
2019-03-09T18:12:01.586Z,3.40
2019-03-09T18:14:27.683Z,4.03
2019-03-09T18:16:54.038Z,15.50
2019-03-09T18:19:20.206Z,3.87
2019-03-09T18:21:46.368Z,4.00
2019-03-09T18:24:12.491Z,3.70
2019-03-09T18:26:38.727Z,3.90
2019-03-09T18:29:04.748Z,4.20
2019-03-09T18:31:30.862Z,4.50
2019-03-09T18:33:56.926Z,5.80
2019-03-09T18:36:23.352Z,3.93
2019-03-09T18:38:49.480Z,4.50
2019-03-09T18:41:15.582Z,2.30
2019-03-09T18:43:41.646Z,1.40
2019-03-09T18:46:07.673Z,1.00
2019-03-09T18:48:33.781Z,1.10
2019-03-09T18:51:00.120Z,1.20
2019-03-09T18:53:26.385Z,1.50
2019-03-09T18:55:59.232Z,1.47
2019-03-09T18:58:20.509Z,1.20
2019-03-09T19:00:46.563Z,1.53
2019-03-09T19:03:12.653Z,1.20
2019-03-09T19:05:38.780Z,1.73
2019-03-09T19:08:04.844Z,1.00
2019-03-09T19:10:31.208Z,0.80
2019-03-09T19:12:57.301Z,1.40
2019-03-09T19:15:23.626Z,1.60
2019-03-09T19:17:49.890Z,1.03
2019-03-09T19:20:17.243Z,1.20
2019-03-09T19:22:43.557Z,0.97
2019-03-09T19:25:11.515Z,1.20
2019-03-09T19:27:37.639Z,1.13
2019-03-09T19:30:07.350Z,0.87
2019-03-09T19:32:33.371Z,0.90
2019-03-09T19:34:59.537Z,1.37
2019-03-09T19:37:25.618Z,0.83
2019-03-09T19:39:51.751Z,0.73
2019-03-09T19:42:17.938Z,1.43
2019-03-09T19:44:44.073Z,0.90
2019-03-09T19:47:10.141Z,0.73
2019-03-09T19:49:36.329Z,2.00
2019-03-09T19:52:02.801Z,1.30
2019-03-09T19:54:28.815Z,1.07
2019-03-09T19:56:54.974Z,0.97
2019-03-09T19:59:21.138Z,1.47
2019-03-09T20:01:47.267Z,1.10
2019-03-09T20:04:13.560Z,1.47
2019-03-09T20:06:39.764Z,1.07
2019-03-09T20:09:06.324Z,1.10
2019-03-09T20:11:32.387Z,1.20
2019-03-09T20:13:58.507Z,1.90
2019-03-09T20:16:24.639Z,1.17
2019-03-09T20:18:50.765Z,1.93
2019-03-09T20:21:17.399Z,0.90
2019-03-09T20:23:43.598Z,1.23
2019-03-09T20:26:09.680Z,2.03
2019-03-09T20:28:35.882Z,1.67
2019-03-09T20:31:02.061Z,1.40
2019-03-09T20:33:28.345Z,2.13
2019-03-09T20:35:54.616Z,1.97
2019-03-09T20:38:20.826Z,2.13
2019-03-09T20:40:46.991Z,1.60
2019-03-09T20:43:13.180Z,2.10
2019-03-09T20:45:59.480Z,2.37
2019-03-09T20:48:25.618Z,2.17
2019-03-09T20:50:53.452Z,2.20
2019-03-09T20:53:19.845Z,2.60
2019-03-09T20:55:46.235Z,3.00
2019-03-09T20:58:13.534Z,2.27
2019-03-09T21:00:42.810Z,2.40
2019-03-09T21:03:09.199Z,2.20
2019-03-09T21:05:36.894Z,2.10
2019-03-09T21:08:03.254Z,1.60
2019-03-09T21:10:29.399Z,2.37
2019-03-09T21:13:08.380Z,3.23
2019-03-09T21:15:34.499Z,2.20
2019-03-09T21:18:00.851Z,2.30
2019-03-09T21:20:27.073Z,2.30
2019-03-09T21:22:53.289Z,2.70
2019-03-09T21:25:19.582Z,2.87
2019-03-09T21:27:46.968Z,3.17
2019-03-09T21:30:13.777Z,2.00
2019-03-09T21:32:39.833Z,2.50
2019-03-09T21:35:06.062Z,3.33
2019-03-09T21:37:32.319Z,1.70
2019-03-09T21:39:58.725Z,1.93
2019-03-09T21:42:25.086Z,2.13
2019-03-09T21:44:51.898Z,1.47
2019-03-09T21:47:18.034Z,2.53
2019-03-09T21:49:44.258Z,1.93
2019-03-09T21:52:10.502Z,1.43
2019-03-09T21:54:37.226Z,2.10
2019-03-09T21:57:03.431Z,2.33
2019-03-09T21:59:29.478Z,2.47
2019-03-09T22:01:55.817Z,2.00
2019-03-09T22:04:21.937Z,2.40
2019-03-09T22:06:50.299Z,1.73
2019-03-09T22:09:16.515Z,3.20
2019-03-09T22:11:42.686Z,2.23
2019-03-09T22:14:08.895Z,3.30
2019-03-09T22:16:35.136Z,2.43
2019-03-09T22:19:01.392Z,3.03
2019-03-09T22:21:27.587Z,2.10
2019-03-09T22:23:53.850Z,2.17
2019-03-09T22:26:20.074Z,2.10
2019-03-09T22:28:46.583Z,2.53
2019-03-09T22:31:12.638Z,2.60
2019-03-09T22:33:38.959Z,2.10
2019-03-09T22:36:05.123Z,2.20
2019-03-09T22:38:31.315Z,2.63
2019-03-09T22:40:58.737Z,2.20
2019-03-09T22:43:24.899Z,3.00
2019-03-09T22:45:52.968Z,3.17
2019-03-09T22:48:19.483Z,2.90
2019-03-09T22:50:45.610Z,3.20
2019-03-09T22:53:11.834Z,2.73
2019-03-09T22:55:38.037Z,2.90
2019-03-09T22:58:04.702Z,2.57
2019-03-09T23:00:30.962Z,2.23
2019-03-09T23:02:57.079Z,2.67
2019-03-09T23:05:23.689Z,2.63
2019-03-09T23:07:50.250Z,2.30
2019-03-09T23:10:21.143Z,2.53
2019-03-09T23:12:47.295Z,2.27
2019-03-09T23:15:14.859Z,2.47
2019-03-09T23:17:41.289Z,2.50
2019-03-09T23:20:09.791Z,2.23
2019-03-09T23:22:35.955Z,2.20
2019-03-09T23:25:02.759Z,2.30
2019-03-09T23:27:28.943Z,2.20
2019-03-09T23:29:55.214Z,2.23
2019-03-09T23:32:21.313Z,3.33
2019-03-09T23:34:50.065Z,2.87
2019-03-09T23:37:16.297Z,3.73
2019-03-09T23:39:44.033Z,3.10
2019-03-09T23:42:10.231Z,3.70
2019-03-09T23:44:36.484Z,2.23
2019-03-09T23:47:02.732Z,2.40
2019-03-09T23:49:28.941Z,2.90
2019-03-09T23:51:55.053Z,2.70
2019-03-09T23:54:21.386Z,4.30
2019-03-09T23:56:47.751Z,3.50
2019-03-09T23:59:14.027Z,3.57
